Naper, Nebraska
Current Conditions -  °F | °C
As of 1:15 PM on Friday 21 Nov 2014 (Local Time) from KONL Reporting Station
Clear Clear  
Wind Chill: 36°   Ceiling: Unl
Heat Index: 43°   Visibility: 10mi
Dew Point: 33°   Wind: 14mph
Humidity: 67%   Direction: 190°S
Pressure: 29.9"   Gusts: 20mph
Location:  42.96°N, 99.1°W
Report Text: KONL 211915Z AUTO 19012G17KT 10SM CLR 06/00 A2990 RMK AO2 T00620004
Loading
Personal Weather Stations






























Interactive Weather Map New forecast layout! Learn more

10-Day Weather Forecast

Advertisements
Track Severe Weather on mobile